sensor_id;sensor_type;location;lat;lon;timestamp;temperature;humidity
61912;DHT22;49973;52.084;5.412;2022-12-20T00:01:39;9.90;99.90
61912;DHT22;49973;52.084;5.412;2022-12-20T00:04:09;9.90;99.90
61912;DHT22;49973;52.084;5.412;2022-12-20T00:06:40;9.90;99.90
61912;DHT22;49973;52.084;5.412;2022-12-20T00:09:10;9.90;99.90
61912;DHT22;49973;52.084;5.412;2022-12-20T00:11:39;9.90;99.90
61912;DHT22;49973;52.084;5.412;2022-12-20T00:14:09;10.00;99.90
61912;DHT22;49973;52.084;5.412;2022-12-20T00:16:38;10.00;99.90
61912;DHT22;49973;52.084;5.412;2022-12-20T00:19:06;10.00;99.90
61912;DHT22;49973;52.084;5.412;2022-12-20T00:21:35;10.10;99.90
61912;DHT22;49973;52.084;5.412;2022-12-20T00:24:06;10.10;99.90
61912;DHT22;49973;52.084;5.412;2022-12-20T00:26:35;10.10;99.90
61912;DHT22;49973;52.084;5.412;2022-12-20T00:29:04;10.20;99.90
61912;DHT22;49973;52.084;5.412;2022-12-20T00:31:33;10.20;99.90
61912;DHT22;49973;52.084;5.412;2022-12-20T00:34:02;10.20;99.90
61912;DHT22;49973;52.084;5.412;2022-12-20T00:36:31;10.30;99.90
61912;DHT22;49973;52.084;5.412;2022-12-20T00:39:00;10.30;99.90
61912;DHT22;49973;52.084;5.412;2022-12-20T00:41:32;10.40;99.90
61912;DHT22;49973;52.084;5.412;2022-12-20T00:44:01;10.40;99.90
61912;DHT22;49973;52.084;5.412;2022-12-20T00:46:30;10.40;99.90
61912;DHT22;49973;52.084;5.412;2022-12-20T00:49:00;10.50;99.90
61912;DHT22;49973;52.084;5.412;2022-12-20T00:51:29;10.50;99.90
61912;DHT22;49973;52.084;5.412;2022-12-20T00:53:58;10.50;99.90
61912;DHT22;49973;52.084;5.412;2022-12-20T00:56:27;10.50;99.90
61912;DHT22;49973;52.084;5.412;2022-12-20T00:58:59;10.60;99.90
61912;DHT22;49973;52.084;5.412;2022-12-20T01:01:29;10.50;99.90
61912;DHT22;49973;52.084;5.412;2022-12-20T01:03:58;10.60;99.90
61912;DHT22;49973;52.084;5.412;2022-12-20T01:06:28;10.60;99.90
61912;DHT22;49973;52.084;5.412;2022-12-20T01:08:57;10.60;99.90
61912;DHT22;49973;52.084;5.412;2022-12-20T01:11:27;10.60;99.90
61912;DHT22;49973;52.084;5.412;2022-12-20T01:13:59;10.70;99.90
61912;DHT22;49973;52.084;5.412;2022-12-20T01:16:30;10.60;99.90
61912;DHT22;49973;52.084;5.412;2022-12-20T01:19:01;10.60;99.90
61912;DHT22;49973;52.084;5.412;2022-12-20T01:21:29;10.60;99.90
61912;DHT22;49973;52.084;5.412;2022-12-20T01:23:58;10.50;99.90
61912;DHT22;49973;52.084;5.412;2022-12-20T01:26:28;10.50;99.90
61912;DHT22;49973;52.084;5.412;2022-12-20T01:28:59;10.40;99.90
61912;DHT22;49973;52.084;5.412;2022-12-20T01:31:28;10.40;99.90
61912;DHT22;49973;52.084;5.412;2022-12-20T01:33:59;10.40;99.90
61912;DHT22;49973;52.084;5.412;2022-12-20T01:36:29;10.30;99.90
61912;DHT22;49973;52.084;5.412;2022-12-20T01:38:59;10.20;99.90
61912;DHT22;49973;52.084;5.412;2022-12-20T01:41:30;10.10;99.90
61912;DHT22;49973;52.084;5.412;2022-12-20T01:44:02;10.20;99.90
61912;DHT22;49973;52.084;5.412;2022-12-20T01:46:32;9.90;99.90
61912;DHT22;49973;52.084;5.412;2022-12-20T01:49:05;9.90;99.90
61912;DHT22;49973;52.084;5.412;2022-12-20T01:51:38;9.80;99.90
61912;DHT22;49973;52.084;5.412;2022-12-20T01:54:11;9.80;99.90
61912;DHT22;49973;52.084;5.412;2022-12-20T01:56:43;9.70;99.90
61912;DHT22;49973;52.084;5.412;2022-12-20T01:59:14;9.70;99.90
61912;DHT22;49973;52.084;5.412;2022-12-20T02:01:43;9.60;99.90
61912;DHT22;49973;52.084;5.412;2022-12-20T02:04:12;9.70;99.90
61912;DHT22;49973;52.084;5.412;2022-12-20T02:06:40;9.60;99.90
61912;DHT22;49973;52.084;5.412;2022-12-20T02:09:09;9.50;99.90
61912;DHT22;49973;52.084;5.412;2022-12-20T02:11:53;9.60;99.90
61912;DHT22;49973;52.084;5.412;2022-12-20T02:14:35;9.50;99.90
61912;DHT22;49973;52.084;5.412;2022-12-20T02:17:16;9.60;99.90
61912;DHT22;49973;52.084;5.412;2022-12-20T02:20:04;9.50;99.90
61912;DHT22;49973;52.084;5.412;2022-12-20T02:22:45;9.50;99.90
61912;DHT22;49973;52.084;5.412;2022-12-20T02:25:32;9.60;99.90
61912;DHT22;49973;52.084;5.412;2022-12-20T02:28:12;9.50;99.90
61912;DHT22;49973;52.084;5.412;2022-12-20T02:30:53;9.50;99.90
61912;DHT22;49973;52.084;5.412;2022-12-20T02:33:26;9.50;99.90
61912;DHT22;49973;52.084;5.412;2022-12-20T02:35:55;9.50;99.90
61912;DHT22;49973;52.084;5.412;2022-12-20T02:38:27;9.50;99.90
61912;DHT22;49973;52.084;5.412;2022-12-20T02:40:59;9.50;99.90
61912;DHT22;49973;52.084;5.412;2022-12-20T02:43:30;9.50;99.90
61912;DHT22;49973;52.084;5.412;2022-12-20T02:46:20;9.60;99.90
61912;DHT22;49973;52.084;5.412;2022-12-20T02:48:51;9.60;99.90
61912;DHT22;49973;52.084;5.412;2022-12-20T02:51:22;9.60;99.90
61912;DHT22;49973;52.084;5.412;2022-12-20T02:53:53;9.70;99.90
61912;DHT22;49973;52.084;5.412;2022-12-20T02:56:27;9.60;99.90
61912;DHT22;49973;52.084;5.412;2022-12-20T02:59:02;9.60;99.90
61912;DHT22;49973;52.084;5.412;2022-12-20T03:01:39;9.60;99.90
61912;DHT22;49973;52.084;5.412;2022-12-20T03:04:10;9.60;99.90
61912;DHT22;49973;52.084;5.412;2022-12-20T03:06:55;9.60;99.90
61912;DHT22;49973;52.084;5.412;2022-12-20T03:09:23;9.60;99.90
61912;DHT22;49973;52.084;5.412;2022-12-20T03:11:52;9.80;99.90
61912;DHT22;49973;52.084;5.412;2022-12-20T03:14:21;9.60;99.90
61912;DHT22;49973;52.084;5.412;2022-12-20T03:16:53;9.60;99.90
61912;DHT22;49973;52.084;5.412;2022-12-20T03:19:22;9.60;99.90
61912;DHT22;49973;52.084;5.412;2022-12-20T03:21:50;9.60;99.90
61912;DHT22;49973;52.084;5.412;2022-12-20T03:24:19;9.60;99.90
61912;DHT22;49973;52.084;5.412;2022-12-20T03:26:48;9.60;99.90
61912;DHT22;49973;52.084;5.412;2022-12-20T03:29:19;9.70;99.90
61912;DHT22;49973;52.084;5.412;2022-12-20T03:31:48;9.60;99.90
61912;DHT22;49973;52.084;5.412;2022-12-20T03:34:17;9.60;99.90
61912;DHT22;49973;52.084;5.412;2022-12-20T03:36:46;9.60;99.90
61912;DHT22;49973;52.084;5.412;2022-12-20T03:39:16;9.60;99.90
61912;DHT22;49973;52.084;5.412;2022-12-20T03:41:44;9.60;99.90
61912;DHT22;49973;52.084;5.412;2022-12-20T03:44:17;9.60;99.90
61912;DHT22;49973;52.084;5.412;2022-12-20T03:46:45;9.70;99.90
61912;DHT22;49973;52.084;5.412;2022-12-20T03:49:15;9.70;99.90
61912;DHT22;49973;52.084;5.412;2022-12-20T03:51:49;9.70;99.90
61912;DHT22;49973;52.084;5.412;2022-12-20T03:54:18;9.80;99.90
61912;DHT22;49973;52.084;5.412;2022-12-20T03:57:04;9.80;99.90
61912;DHT22;49973;52.084;5.412;2022-12-20T03:59:33;9.80;99.90
61912;DHT22;49973;52.084;5.412;2022-12-20T04:02:04;9.80;99.90
61912;DHT22;49973;52.084;5.412;2022-12-20T04:04:33;9.80;99.90
61912;DHT22;49973;52.084;5.412;2022-12-20T04:07:03;9.90;99.90
61912;DHT22;49973;52.084;5.412;2022-12-20T04:09:33;9.90;99.90
61912;DHT22;49973;52.084;5.412;2022-12-20T04:12:07;9.90;99.90
61912;DHT22;49973;52.084;5.412;2022-12-20T04:14:38;9.90;99.90
61912;DHT22;49973;52.084;5.412;2022-12-20T04:17:07;9.90;99.90
61912;DHT22;49973;52.084;5.412;2022-12-20T04:19:36;10.00;99.90
61912;DHT22;49973;52.084;5.412;2022-12-20T04:22:07;10.00;99.90
61912;DHT22;49973;52.084;5.412;2022-12-20T04:25:01;10.10;99.90
61912;DHT22;49973;52.084;5.412;2022-12-20T04:27:37;10.10;99.90
61912;DHT22;49973;52.084;5.412;2022-12-20T04:30:08;10.10;99.90
61912;DHT22;49973;52.084;5.412;2022-12-20T04:32:37;10.10;99.90
61912;DHT22;49973;52.084;5.412;2022-12-20T04:35:07;10.20;99.90
61912;DHT22;49973;52.084;5.412;2022-12-20T04:37:41;10.20;99.90
61912;DHT22;49973;52.084;5.412;2022-12-20T04:40:11;10.30;99.90
61912;DHT22;49973;52.084;5.412;2022-12-20T04:42:51;10.30;99.90
61912;DHT22;49973;52.084;5.412;2022-12-20T04:45:20;10.30;99.90
61912;DHT22;49973;52.084;5.412;2022-12-20T04:47:51;10.30;99.90
61912;DHT22;49973;52.084;5.412;2022-12-20T04:50:25;10.30;99.90
61912;DHT22;49973;52.084;5.412;2022-12-20T04:52:55;10.30;99.90
61912;DHT22;49973;52.084;5.412;2022-12-20T04:55:41;10.40;99.90
61912;DHT22;49973;52.084;5.412;2022-12-20T04:58:10;10.50;99.90
61912;DHT22;49973;52.084;5.412;2022-12-20T05:00:40;10.40;99.90
61912;DHT22;49973;52.084;5.412;2022-12-20T05:03:23;10.40;99.90
61912;DHT22;49973;52.084;5.412;2022-12-20T05:05:53;10.40;99.90
61912;DHT22;49973;52.084;5.412;2022-12-20T05:08:24;10.40;99.90
61912;DHT22;49973;52.084;5.412;2022-12-20T05:10:53;10.30;99.90
61912;DHT22;49973;52.084;5.412;2022-12-20T05:13:21;10.30;99.90
61912;DHT22;49973;52.084;5.412;2022-12-20T05:15:50;10.30;99.90
61912;DHT22;49973;52.084;5.412;2022-12-20T05:18:23;10.20;99.90
61912;DHT22;49973;52.084;5.412;2022-12-20T05:20:59;10.20;99.90
61912;DHT22;49973;52.084;5.412;2022-12-20T05:23:49;10.20;99.90
61912;DHT22;49973;52.084;5.412;2022-12-20T05:27:07;10.20;99.90
61912;DHT22;49973;52.084;5.412;2022-12-20T05:29:36;10.20;99.90
61912;DHT22;49973;52.084;5.412;2022-12-20T05:32:04;10.20;99.90
61912;DHT22;49973;52.084;5.412;2022-12-20T05:34:37;10.20;99.90
61912;DHT22;49973;52.084;5.412;2022-12-20T05:37:06;10.20;99.90
61912;DHT22;49973;52.084;5.412;2022-12-20T05:39:38;10.20;99.90
61912;DHT22;49973;52.084;5.412;2022-12-20T05:42:13;10.20;99.90
61912;DHT22;49973;52.084;5.412;2022-12-20T05:44:42;10.20;99.90
61912;DHT22;49973;52.084;5.412;2022-12-20T05:47:10;10.30;99.90
61912;DHT22;49973;52.084;5.412;2022-12-20T05:49:39;10.30;99.90
61912;DHT22;49973;52.084;5.412;2022-12-20T05:52:09;10.30;99.90
61912;DHT22;49973;52.084;5.412;2022-12-20T05:54:41;10.30;99.90
61912;DHT22;49973;52.084;5.412;2022-12-20T05:57:15;10.30;99.90
61912;DHT22;49973;52.084;5.412;2022-12-20T05:59:45;10.40;99.90
61912;DHT22;49973;52.084;5.412;2022-12-20T06:02:17;10.40;99.90
61912;DHT22;49973;52.084;5.412;2022-12-20T06:04:49;10.40;99.90
61912;DHT22;49973;52.084;5.412;2022-12-20T06:07:22;10.40;99.90
61912;DHT22;49973;52.084;5.412;2022-12-20T06:09:57;10.40;99.90
61912;DHT22;49973;52.084;5.412;2022-12-20T06:12:38;10.50;99.90
61912;DHT22;49973;52.084;5.412;2022-12-20T06:15:08;10.50;99.90
61912;DHT22;49973;52.084;5.412;2022-12-20T06:17:38;10.50;99.90
61912;DHT22;49973;52.084;5.412;2022-12-20T06:20:07;10.50;99.90
61912;DHT22;49973;52.084;5.412;2022-12-20T06:22:37;10.60;99.90
61912;DHT22;49973;52.084;5.412;2022-12-20T06:25:08;10.60;99.90
61912;DHT22;49973;52.084;5.412;2022-12-20T06:27:39;10.60;99.90
61912;DHT22;49973;52.084;5.412;2022-12-20T06:30:14;10.60;99.90
61912;DHT22;49973;52.084;5.412;2022-12-20T06:32:53;10.70;99.90
61912;DHT22;49973;52.084;5.412;2022-12-20T06:35:21;10.60;99.90
61912;DHT22;49973;52.084;5.412;2022-12-20T06:37:53;10.70;99.90
61912;DHT22;49973;52.084;5.412;2022-12-20T06:40:24;10.70;99.90
61912;DHT22;49973;52.084;5.412;2022-12-20T06:42:52;10.80;99.90
61912;DHT22;49973;52.084;5.412;2022-12-20T06:45:24;10.80;99.90
61912;DHT22;49973;52.084;5.412;2022-12-20T06:47:53;10.80;99.90
61912;DHT22;49973;52.084;5.412;2022-12-20T06:50:22;10.70;99.90
61912;DHT22;49973;52.084;5.412;2022-12-20T06:52:51;10.70;99.90
61912;DHT22;49973;52.084;5.412;2022-12-20T06:55:21;10.80;99.90
61912;DHT22;49973;52.084;5.412;2022-12-20T06:57:51;10.80;99.90
61912;DHT22;49973;52.084;5.412;2022-12-20T07:00:21;10.70;99.90
61912;DHT22;49973;52.084;5.412;2022-12-20T07:02:49;10.70;99.90
61912;DHT22;49973;52.084;5.412;2022-12-20T07:05:18;10.80;99.90
61912;DHT22;49973;52.084;5.412;2022-12-20T07:07:46;10.80;99.90
61912;DHT22;49973;52.084;5.412;2022-12-20T07:10:15;10.80;99.90
61912;DHT22;49973;52.084;5.412;2022-12-20T07:12:43;10.80;99.90
61912;DHT22;49973;52.084;5.412;2022-12-20T07:15:16;10.80;99.90
61912;DHT22;49973;52.084;5.412;2022-12-20T07:17:45;10.80;99.90
61912;DHT22;49973;52.084;5.412;2022-12-20T07:20:15;10.90;99.90
61912;DHT22;49973;52.084;5.412;2022-12-20T07:22:46;10.90;99.90
61912;DHT22;49973;52.084;5.412;2022-12-20T07:25:14;10.90;99.90
61912;DHT22;49973;52.084;5.412;2022-12-20T07:27:46;10.90;99.90
61912;DHT22;49973;52.084;5.412;2022-12-20T07:30:18;10.90;99.90
61912;DHT22;49973;52.084;5.412;2022-12-20T07:32:47;11.00;99.90
61912;DHT22;49973;52.084;5.412;2022-12-20T07:35:16;11.00;99.90
61912;DHT22;49973;52.084;5.412;2022-12-20T07:37:44;11.00;99.90
61912;DHT22;49973;52.084;5.412;2022-12-20T07:40:13;11.00;99.90
61912;DHT22;49973;52.084;5.412;2022-12-20T07:42:42;11.00;99.90
61912;DHT22;49973;52.084;5.412;2022-12-20T07:45:16;11.00;99.90
61912;DHT22;49973;52.084;5.412;2022-12-20T07:47:45;11.00;99.90
61912;DHT22;49973;52.084;5.412;2022-12-20T07:50:13;11.00;99.90
61912;DHT22;49973;52.084;5.412;2022-12-20T07:52:43;11.00;99.90
61912;DHT22;49973;52.084;5.412;2022-12-20T07:55:13;11.00;99.90
61912;DHT22;49973;52.084;5.412;2022-12-20T07:57:46;11.00;99.90
61912;DHT22;49973;52.084;5.412;2022-12-20T08:00:18;11.00;99.90
61912;DHT22;49973;52.084;5.412;2022-12-20T08:02:49;10.90;99.90
61912;DHT22;49973;52.084;5.412;2022-12-20T08:05:20;10.90;99.90
61912;DHT22;49973;52.084;5.412;2022-12-20T08:07:51;10.90;99.90
61912;DHT22;49973;52.084;5.412;2022-12-20T08:10:26;10.80;99.90
61912;DHT22;49973;52.084;5.412;2022-12-20T08:12:55;10.90;99.90
61912;DHT22;49973;52.084;5.412;2022-12-20T08:15:25;10.70;99.90
61912;DHT22;49973;52.084;5.412;2022-12-20T08:17:55;10.80;99.90
61912;DHT22;49973;52.084;5.412;2022-12-20T08:20:24;10.80;99.90
61912;DHT22;49973;52.084;5.412;2022-12-20T08:22:52;10.80;99.90
61912;DHT22;49973;52.084;5.412;2022-12-20T08:25:21;10.70;99.90
61912;DHT22;49973;52.084;5.412;2022-12-20T08:27:50;10.80;99.90
61912;DHT22;49973;52.084;5.412;2022-12-20T08:30:19;10.80;99.90
61912;DHT22;49973;52.084;5.412;2022-12-20T08:32:49;10.80;99.90
61912;DHT22;49973;52.084;5.412;2022-12-20T08:35:17;10.70;99.90
61912;DHT22;49973;52.084;5.412;2022-12-20T08:37:46;10.70;99.90
61912;DHT22;49973;52.084;5.412;2022-12-20T08:40:14;10.70;99.90
61912;DHT22;49973;52.084;5.412;2022-12-20T08:42:43;10.70;99.90
61912;DHT22;49973;52.084;5.412;2022-12-20T08:45:12;10.70;99.90
61912;DHT22;49973;52.084;5.412;2022-12-20T08:47:40;10.70;99.90
61912;DHT22;49973;52.084;5.412;2022-12-20T08:50:10;10.70;99.90
61912;DHT22;49973;52.084;5.412;2022-12-20T08:52:39;10.70;99.90
61912;DHT22;49973;52.084;5.412;2022-12-20T08:55:08;10.70;99.90
61912;DHT22;49973;52.084;5.412;2022-12-20T08:57:39;10.70;99.90
61912;DHT22;49973;52.084;5.412;2022-12-20T09:00:08;10.70;99.90
61912;DHT22;49973;52.084;5.412;2022-12-20T09:02:37;10.70;99.90
61912;DHT22;49973;52.084;5.412;2022-12-20T09:05:09;10.70;99.90
61912;DHT22;49973;52.084;5.412;2022-12-20T09:07:38;10.60;99.90
61912;DHT22;49973;52.084;5.412;2022-12-20T09:10:07;10.60;99.90
61912;DHT22;49973;52.084;5.412;2022-12-20T09:12:36;10.60;99.90
61912;DHT22;49973;52.084;5.412;2022-12-20T09:15:07;10.50;99.90
61912;DHT22;49973;52.084;5.412;2022-12-20T09:17:35;10.50;99.90
61912;DHT22;49973;52.084;5.412;2022-12-20T09:20:05;10.50;99.90
61912;DHT22;49973;52.084;5.412;2022-12-20T09:22:35;10.40;99.90
61912;DHT22;49973;52.084;5.412;2022-12-20T09:25:04;10.50;99.90
61912;DHT22;49973;52.084;5.412;2022-12-20T09:27:33;10.40;99.90
61912;DHT22;49973;52.084;5.412;2022-12-20T09:30:02;10.40;99.90
61912;DHT22;49973;52.084;5.412;2022-12-20T09:32:30;10.40;99.90
61912;DHT22;49973;52.084;5.412;2022-12-20T09:34:59;10.40;99.90
61912;DHT22;49973;52.084;5.412;2022-12-20T09:37:29;10.40;99.90
61912;DHT22;49973;52.084;5.412;2022-12-20T09:39:59;10.30;99.90
61912;DHT22;49973;52.084;5.412;2022-12-20T09:42:28;10.30;99.90
61912;DHT22;49973;52.084;5.412;2022-12-20T09:45:00;10.30;99.90
61912;DHT22;49973;52.084;5.412;2022-12-20T09:47:32;10.30;99.90
61912;DHT22;49973;52.084;5.412;2022-12-20T09:50:02;10.30;99.90
61912;DHT22;49973;52.084;5.412;2022-12-20T09:52:50;10.30;99.90
61912;DHT22;49973;52.084;5.412;2022-12-20T09:55:27;10.30;99.90
61912;DHT22;49973;52.084;5.412;2022-12-20T09:58:13;10.30;99.90
61912;DHT22;49973;52.084;5.412;2022-12-20T10:00:48;10.30;99.90
61912;DHT22;49973;52.084;5.412;2022-12-20T10:03:22;10.30;99.90
61912;DHT22;49973;52.084;5.412;2022-12-20T10:05:54;10.30;99.90
61912;DHT22;49973;52.084;5.412;2022-12-20T10:08:37;10.30;99.90
61912;DHT22;49973;52.084;5.412;2022-12-20T10:11:16;10.30;99.90
61912;DHT22;49973;52.084;5.412;2022-12-20T10:13:57;10.30;99.90
61912;DHT22;49973;52.084;5.412;2022-12-20T10:16:37;10.30;99.90
61912;DHT22;49973;52.084;5.412;2022-12-20T10:19:20;10.30;99.90
61912;DHT22;49973;52.084;5.412;2022-12-20T10:21:59;10.30;99.90
61912;DHT22;49973;52.084;5.412;2022-12-20T10:24:31;10.30;99.90
61912;DHT22;49973;52.084;5.412;2022-12-20T10:27:11;10.40;99.90
61912;DHT22;49973;52.084;5.412;2022-12-20T10:29:41;10.40;99.90
61912;DHT22;49973;52.084;5.412;2022-12-20T10:32:12;10.40;99.90
61912;DHT22;49973;52.084;5.412;2022-12-20T10:34:46;10.40;99.90
61912;DHT22;49973;52.084;5.412;2022-12-20T10:37:18;10.40;99.90
61912;DHT22;49973;52.084;5.412;2022-12-20T10:39:49;10.40;99.90
61912;DHT22;49973;52.084;5.412;2022-12-20T10:42:26;10.50;99.90
61912;DHT22;49973;52.084;5.412;2022-12-20T10:44:57;10.40;99.90
61912;DHT22;49973;52.084;5.412;2022-12-20T10:47:35;10.50;99.90
61912;DHT22;49973;52.084;5.412;2022-12-20T10:50:14;10.50;99.90
61912;DHT22;49973;52.084;5.412;2022-12-20T10:52:43;10.50;99.90
61912;DHT22;49973;52.084;5.412;2022-12-20T10:55:32;10.50;99.90
61912;DHT22;49973;52.084;5.412;2022-12-20T10:58:13;10.60;99.90
61912;DHT22;49973;52.084;5.412;2022-12-20T11:00:43;10.50;99.90
61912;DHT22;49973;52.084;5.412;2022-12-20T11:03:16;10.60;99.90
61912;DHT22;49973;52.084;5.412;2022-12-20T11:05:54;10.60;99.90
61912;DHT22;49973;52.084;5.412;2022-12-20T11:08:23;10.60;99.90
61912;DHT22;49973;52.084;5.412;2022-12-20T11:11:14;10.60;99.90
61912;DHT22;49973;52.084;5.412;2022-12-20T11:13:45;10.60;99.90
61912;DHT22;49973;52.084;5.412;2022-12-20T11:16:35;10.60;99.90
61912;DHT22;49973;52.084;5.412;2022-12-20T11:19:26;10.60;99.90
61912;DHT22;49973;52.084;5.412;2022-12-20T11:22:02;10.60;99.90
61912;DHT22;49973;52.084;5.412;2022-12-20T11:24:38;10.60;99.90
61912;DHT22;49973;52.084;5.412;2022-12-20T11:27:19;10.60;99.90
61912;DHT22;49973;52.084;5.412;2022-12-20T11:30:20;10.60;99.90
61912;DHT22;49973;52.084;5.412;2022-12-20T11:33:01;10.60;99.90
61912;DHT22;49973;52.084;5.412;2022-12-20T11:35:41;10.60;99.90
61912;DHT22;49973;52.084;5.412;2022-12-20T11:38:27;10.60;99.90
61912;DHT22;49973;52.084;5.412;2022-12-20T11:41:09;10.60;99.90
61912;DHT22;49973;52.084;5.412;2022-12-20T11:43:49;10.60;99.90
61912;DHT22;49973;52.084;5.412;2022-12-20T11:46:52;10.60;99.90
61912;DHT22;49973;52.084;5.412;2022-12-20T11:49:53;10.60;99.90
61912;DHT22;49973;52.084;5.412;2022-12-20T11:52:34;10.60;99.90
61912;DHT22;49973;52.084;5.412;2022-12-20T11:55:12;10.70;99.90
61912;DHT22;49973;52.084;5.412;2022-12-20T11:57:50;10.70;99.90
61912;DHT22;49973;52.084;5.412;2022-12-20T12:00:45;10.60;99.90
61912;DHT22;49973;52.084;5.412;2022-12-20T12:03:20;10.70;99.90
61912;DHT22;49973;52.084;5.412;2022-12-20T12:05:54;10.70;99.90
61912;DHT22;49973;52.084;5.412;2022-12-20T12:08:28;10.70;99.90
61912;DHT22;49973;52.084;5.412;2022-12-20T12:11:01;10.70;99.90
61912;DHT22;49973;52.084;5.412;2022-12-20T12:13:34;10.70;99.90
61912;DHT22;49973;52.084;5.412;2022-12-20T12:16:07;10.70;99.90
61912;DHT22;49973;52.084;5.412;2022-12-20T12:18:39;10.70;99.90
61912;DHT22;49973;52.084;5.412;2022-12-20T12:21:12;10.70;99.90
61912;DHT22;49973;52.084;5.412;2022-12-20T12:23:49;10.70;99.90
61912;DHT22;49973;52.084;5.412;2022-12-20T12:26:24;10.70;99.90
61912;DHT22;49973;52.084;5.412;2022-12-20T12:28:54;10.80;99.90
61912;DHT22;49973;52.084;5.412;2022-12-20T12:31:27;10.70;99.90
61912;DHT22;49973;52.084;5.412;2022-12-20T12:34:07;10.80;99.90
61912;DHT22;49973;52.084;5.412;2022-12-20T12:36:52;10.80;99.90
61912;DHT22;49973;52.084;5.412;2022-12-20T12:43:04;10.80;99.90
61912;DHT22;49973;52.084;5.412;2022-12-20T12:45:39;10.80;99.90
61912;DHT22;49973;52.084;5.412;2022-12-20T12:48:14;10.80;99.90
61912;DHT22;49973;52.084;5.412;2022-12-20T12:50:48;10.80;99.90
61912;DHT22;49973;52.084;5.412;2022-12-20T12:53:20;10.80;99.90
61912;DHT22;49973;52.084;5.412;2022-12-20T12:55:50;10.80;99.90
61912;DHT22;49973;52.084;5.412;2022-12-20T12:58:34;10.80;99.90
61912;DHT22;49973;52.084;5.412;2022-12-20T13:01:08;10.80;99.90
61912;DHT22;49973;52.084;5.412;2022-12-20T13:03:40;10.80;99.90
61912;DHT22;49973;52.084;5.412;2022-12-20T13:09:35;10.80;99.90
61912;DHT22;49973;52.084;5.412;2022-12-20T13:18:22;10.80;99.90
61912;DHT22;49973;52.084;5.412;2022-12-20T13:21:17;10.80;99.90
61912;DHT22;49973;52.084;5.412;2022-12-20T13:23:46;10.80;99.90
61912;DHT22;49973;52.084;5.412;2022-12-20T13:26:49;10.80;99.90
61912;DHT22;49973;52.084;5.412;2022-12-20T13:29:23;10.80;99.90
61912;DHT22;49973;52.084;5.412;2022-12-20T13:31:52;10.90;99.90
61912;DHT22;49973;52.084;5.412;2022-12-20T13:34:39;10.90;99.90
61912;DHT22;49973;52.084;5.412;2022-12-20T13:37:27;10.90;99.90
61912;DHT22;49973;52.084;5.412;2022-12-20T13:39:59;10.90;99.90
61912;DHT22;49973;52.084;5.412;2022-12-20T13:42:37;10.90;99.90
61912;DHT22;49973;52.084;5.412;2022-12-20T13:45:10;10.90;99.90
61912;DHT22;49973;52.084;5.412;2022-12-20T13:47:44;10.90;99.90
61912;DHT22;49973;52.084;5.412;2022-12-20T13:50:32;10.90;99.90
61912;DHT22;49973;52.084;5.412;2022-12-20T13:53:05;10.90;99.90
61912;DHT22;49973;52.084;5.412;2022-12-20T13:55:37;10.90;99.90
61912;DHT22;49973;52.084;5.412;2022-12-20T13:58:11;10.90;99.90
61912;DHT22;49973;52.084;5.412;2022-12-20T14:00:41;10.90;99.90
61912;DHT22;49973;52.084;5.412;2022-12-20T14:03:19;10.90;99.90
61912;DHT22;49973;52.084;5.412;2022-12-20T14:05:48;10.90;99.90
61912;DHT22;49973;52.084;5.412;2022-12-20T14:08:21;10.90;99.90
61912;DHT22;49973;52.084;5.412;2022-12-20T14:10:51;10.90;99.90
61912;DHT22;49973;52.084;5.412;2022-12-20T14:13:23;10.90;99.90
61912;DHT22;49973;52.084;5.412;2022-12-20T14:15:52;10.90;99.90
61912;DHT22;49973;52.084;5.412;2022-12-20T14:18:23;10.90;99.90
61912;DHT22;49973;52.084;5.412;2022-12-20T14:20:53;10.90;99.90
61912;DHT22;49973;52.084;5.412;2022-12-20T14:23:25;10.90;99.90
61912;DHT22;49973;52.084;5.412;2022-12-20T14:25:56;10.90;99.90
61912;DHT22;49973;52.084;5.412;2022-12-20T14:28:30;10.90;99.90
61912;DHT22;49973;52.084;5.412;2022-12-20T14:30:59;10.90;99.90
61912;DHT22;49973;52.084;5.412;2022-12-20T14:33:34;10.90;99.90
61912;DHT22;49973;52.084;5.412;2022-12-20T14:36:16;10.90;99.90
61912;DHT22;49973;52.084;5.412;2022-12-20T14:38:47;10.90;99.90
61912;DHT22;49973;52.084;5.412;2022-12-20T14:41:32;10.90;99.90
61912;DHT22;49973;52.084;5.412;2022-12-20T14:44:12;10.90;99.90
61912;DHT22;49973;52.084;5.412;2022-12-20T14:46:47;10.80;99.90
61912;DHT22;49973;52.084;5.412;2022-12-20T14:49:20;10.80;99.90
61912;DHT22;49973;52.084;5.412;2022-12-20T14:51:50;10.80;99.90
61912;DHT22;49973;52.084;5.412;2022-12-20T14:54:22;10.80;99.90
61912;DHT22;49973;52.084;5.412;2022-12-20T14:57:21;10.80;99.90
61912;DHT22;49973;52.084;5.412;2022-12-20T15:00:04;10.80;99.90
61912;DHT22;49973;52.084;5.412;2022-12-20T15:02:40;10.80;99.90
61912;DHT22;49973;52.084;5.412;2022-12-20T15:08:13;10.70;99.90
61912;DHT22;49973;52.084;5.412;2022-12-20T15:10:47;10.70;99.90
61912;DHT22;49973;52.084;5.412;2022-12-20T15:13:18;10.70;99.90
61912;DHT22;49973;52.084;5.412;2022-12-20T15:15:49;10.70;99.90
61912;DHT22;49973;52.084;5.412;2022-12-20T15:18:19;10.70;99.90
61912;DHT22;49973;52.084;5.412;2022-12-20T15:20:56;10.70;99.90
61912;DHT22;49973;52.084;5.412;2022-12-20T15:23:26;10.70;99.90
61912;DHT22;49973;52.084;5.412;2022-12-20T15:25:55;10.70;99.90
61912;DHT22;49973;52.084;5.412;2022-12-20T15:28:25;10.70;99.90
61912;DHT22;49973;52.084;5.412;2022-12-20T15:30:55;10.70;99.90
61912;DHT22;49973;52.084;5.412;2022-12-20T15:33:26;10.70;99.90
61912;DHT22;49973;52.084;5.412;2022-12-20T15:35:55;10.70;99.90
61912;DHT22;49973;52.084;5.412;2022-12-20T15:38:25;10.70;99.90
61912;DHT22;49973;52.084;5.412;2022-12-20T15:41:18;10.70;99.90
61912;DHT22;49973;52.084;5.412;2022-12-20T15:43:50;10.70;99.90
61912;DHT22;49973;52.084;5.412;2022-12-20T15:46:20;10.60;99.90
61912;DHT22;49973;52.084;5.412;2022-12-20T15:48:49;10.80;99.90
61912;DHT22;49973;52.084;5.412;2022-12-20T15:51:23;10.60;99.90
61912;DHT22;49973;52.084;5.412;2022-12-20T15:53:54;10.60;99.90
61912;DHT22;49973;52.084;5.412;2022-12-20T15:56:24;10.60;99.90
61912;DHT22;49973;52.084;5.412;2022-12-20T15:58:52;10.60;99.90
61912;DHT22;49973;52.084;5.412;2022-12-20T16:01:24;10.60;99.90
61912;DHT22;49973;52.084;5.412;2022-12-20T16:03:54;10.60;99.90
61912;DHT22;49973;52.084;5.412;2022-12-20T16:06:23;10.60;99.90
61912;DHT22;49973;52.084;5.412;2022-12-20T16:08:51;10.60;99.90
61912;DHT22;49973;52.084;5.412;2022-12-20T16:11:22;10.60;99.90
61912;DHT22;49973;52.084;5.412;2022-12-20T16:13:50;10.50;99.90
61912;DHT22;49973;52.084;5.412;2022-12-20T16:16:22;10.60;99.90
61912;DHT22;49973;52.084;5.412;2022-12-20T16:18:51;10.50;99.90
61912;DHT22;49973;52.084;5.412;2022-12-20T16:21:22;10.60;99.90
61912;DHT22;49973;52.084;5.412;2022-12-20T16:23:51;10.50;99.90
61912;DHT22;49973;52.084;5.412;2022-12-20T16:26:22;10.50;99.90